Hlavní strana
METAR-TAF:

METAR-TAF

Letiště :

Sveg, Švédsko

zeměpisná šířka: 62-02-52N, zeměpisná délka: 014-25-22E, výška: 359 m

Aktuální stav počasí

Zpráva byla vytvořena před 33 minutami, v 19:50 UTC
Východní vítr 5 kt
Teplota 1°C
Vlhkost vzduchu 100%
Tlak 1020 hPa
Viditelnost: 8000 m
slabý déšť

METAR: ESND 221950Z AUTO 09005KT 8000 -RA OVC002/// 01/01 Q1020

Čas: 21:23 (20:23 UTC)


TAF: chybějící

Stav a předpovědi počasí z více než 4 000 letišť (zprávy METAR a TAF).

Červené a žluté tečky na mapě představují dostupné meteorologické stanice.

Když kurzor umístíte na tečku, zobrazí se název stanice.

Pak kliknutím zobrazíte stav a předpověď počasí.

Chcete-li změnit mapu, kliknutím na zelené tlačítko se znaménkem +mapu přiblížíte, kliknutím na zelené tlačítko se znaménkem – mapu oddálíte a kliknutím na zelené šipky přejdete na sousední mapy.


METAR-TAF: